sensor_id;sensor_type;location;lat;lon;timestamp;temperature;humidity
20479;DHT22;10398;52.490;13.434;2023-07-29T00:01:43;19.60;99.90
20479;DHT22;10398;52.490;13.434;2023-07-29T00:04:09;19.60;99.90
20479;DHT22;10398;52.490;13.434;2023-07-29T00:06:35;19.70;99.90
20479;DHT22;10398;52.490;13.434;2023-07-29T00:09:01;19.60;99.90
20479;DHT22;10398;52.490;13.434;2023-07-29T00:11:27;19.60;99.90
20479;DHT22;10398;52.490;13.434;2023-07-29T00:13:53;19.50;99.90
20479;DHT22;10398;52.490;13.434;2023-07-29T00:16:18;19.50;99.90
20479;DHT22;10398;52.490;13.434;2023-07-29T00:18:50;19.50;99.90
20479;DHT22;10398;52.490;13.434;2023-07-29T00:21:15;19.40;99.90
20479;DHT22;10398;52.490;13.434;2023-07-29T00:23:41;19.40;99.90
20479;DHT22;10398;52.490;13.434;2023-07-29T00:26:06;19.40;99.90
20479;DHT22;10398;52.490;13.434;2023-07-29T00:28:32;19.40;99.90
20479;DHT22;10398;52.490;13.434;2023-07-29T00:30:58;19.40;99.90
20479;DHT22;10398;52.490;13.434;2023-07-29T00:33:23;19.30;99.90
20479;DHT22;10398;52.490;13.434;2023-07-29T00:35:49;19.20;99.90
20479;DHT22;10398;52.490;13.434;2023-07-29T00:38:15;19.20;99.90
20479;DHT22;10398;52.490;13.434;2023-07-29T00:40:40;19.20;99.90
20479;DHT22;10398;52.490;13.434;2023-07-29T00:43:06;19.10;99.90
20479;DHT22;10398;52.490;13.434;2023-07-29T00:45:32;19.10;99.90
20479;DHT22;10398;52.490;13.434;2023-07-29T00:47:59;19.00;99.90
20479;DHT22;10398;52.490;13.434;2023-07-29T00:50:26;19.00;99.90
20479;DHT22;10398;52.490;13.434;2023-07-29T00:52:54;19.10;99.90
20479;DHT22;10398;52.490;13.434;2023-07-29T00:55:20;19.00;99.90
20479;DHT22;10398;52.490;13.434;2023-07-29T00:57:46;19.00;99.90
20479;DHT22;10398;52.490;13.434;2023-07-29T01:00:14;19.10;99.90
20479;DHT22;10398;52.490;13.434;2023-07-29T01:02:42;19.00;99.90
20479;DHT22;10398;52.490;13.434;2023-07-29T01:05:07;19.00;99.90
20479;DHT22;10398;52.490;13.434;2023-07-29T01:07:43;19.00;99.90
20479;DHT22;10398;52.490;13.434;2023-07-29T01:10:37;19.00;99.90
20479;DHT22;10398;52.490;13.434;2023-07-29T01:13:13;19.00;99.90
20479;DHT22;10398;52.490;13.434;2023-07-29T01:16:01;19.00;99.90
20479;DHT22;10398;52.490;13.434;2023-07-29T01:18:32;18.90;99.90
20479;DHT22;10398;52.490;13.434;2023-07-29T01:21:03;18.90;99.90
20479;DHT22;10398;52.490;13.434;2023-07-29T01:23:31;18.90;99.90
20479;DHT22;10398;52.490;13.434;2023-07-29T01:25:57;18.80;99.90
20479;DHT22;10398;52.490;13.434;2023-07-29T01:28:23;18.90;99.90
20479;DHT22;10398;52.490;13.434;2023-07-29T01:30:52;18.90;99.90
20479;DHT22;10398;52.490;13.434;2023-07-29T01:33:34;18.90;99.90
20479;DHT22;10398;52.490;13.434;2023-07-29T01:36:10;18.90;99.90
20479;DHT22;10398;52.490;13.434;2023-07-29T01:38:38;18.90;99.90
20479;DHT22;10398;52.490;13.434;2023-07-29T01:41:08;18.80;99.90
20479;DHT22;10398;52.490;13.434;2023-07-29T01:43:34;18.80;99.90
20479;DHT22;10398;52.490;13.434;2023-07-29T01:46:07;18.70;99.90
20479;DHT22;10398;52.490;13.434;2023-07-29T01:48:32;18.60;99.90
20479;DHT22;10398;52.490;13.434;2023-07-29T01:50:58;18.60;99.90
20479;DHT22;10398;52.490;13.434;2023-07-29T01:53:23;18.60;99.90
20479;DHT22;10398;52.490;13.434;2023-07-29T01:55:49;18.70;99.90
20479;DHT22;10398;52.490;13.434;2023-07-29T01:58:15;18.70;99.90
20479;DHT22;10398;52.490;13.434;2023-07-29T02:00:40;18.70;99.90
20479;DHT22;10398;52.490;13.434;2023-07-29T02:03:06;18.70;99.90
20479;DHT22;10398;52.490;13.434;2023-07-29T02:05:32;18.60;99.90
20479;DHT22;10398;52.490;13.434;2023-07-29T02:07:57;18.60;99.90
20479;DHT22;10398;52.490;13.434;2023-07-29T02:10:23;18.60;99.90
20479;DHT22;10398;52.490;13.434;2023-07-29T02:12:49;18.60;99.90
20479;DHT22;10398;52.490;13.434;2023-07-29T02:15:14;18.60;99.90
20479;DHT22;10398;52.490;13.434;2023-07-29T02:17:41;18.60;99.90
20479;DHT22;10398;52.490;13.434;2023-07-29T02:20:07;18.50;99.90
20479;DHT22;10398;52.490;13.434;2023-07-29T02:22:34;18.40;99.90
20479;DHT22;10398;52.490;13.434;2023-07-29T02:24:59;18.40;99.90
20479;DHT22;10398;52.490;13.434;2023-07-29T02:27:26;18.40;99.90
20479;DHT22;10398;52.490;13.434;2023-07-29T02:29:53;18.30;99.90
20479;DHT22;10398;52.490;13.434;2023-07-29T02:32:19;18.40;99.90
20479;DHT22;10398;52.490;13.434;2023-07-29T02:34:45;18.40;99.90
20479;DHT22;10398;52.490;13.434;2023-07-29T02:37:10;18.40;99.90
20479;DHT22;10398;52.490;13.434;2023-07-29T02:39:37;18.30;99.90
20479;DHT22;10398;52.490;13.434;2023-07-29T02:42:02;18.30;99.90
20479;DHT22;10398;52.490;13.434;2023-07-29T02:44:28;18.40;99.90
20479;DHT22;10398;52.490;13.434;2023-07-29T02:46:54;18.30;99.90
20479;DHT22;10398;52.490;13.434;2023-07-29T02:49:21;18.30;99.90
20479;DHT22;10398;52.490;13.434;2023-07-29T02:51:47;18.30;99.90
20479;DHT22;10398;52.490;13.434;2023-07-29T02:54:13;18.30;99.90
20479;DHT22;10398;52.490;13.434;2023-07-29T02:56:38;18.30;99.90
20479;DHT22;10398;52.490;13.434;2023-07-29T02:59:04;18.30;99.90
20479;DHT22;10398;52.490;13.434;2023-07-29T03:01:30;18.30;99.90
20479;DHT22;10398;52.490;13.434;2023-07-29T03:03:56;18.20;99.90
20479;DHT22;10398;52.490;13.434;2023-07-29T03:06:22;18.20;99.90
20479;DHT22;10398;52.490;13.434;2023-07-29T03:08:47;18.20;99.90
20479;DHT22;10398;52.490;13.434;2023-07-29T03:11:14;18.10;99.90
20479;DHT22;10398;52.490;13.434;2023-07-29T03:13:41;18.20;99.90
20479;DHT22;10398;52.490;13.434;2023-07-29T03:18:32;18.20;99.90
20479;DHT22;10398;52.490;13.434;2023-07-29T03:20:58;18.30;99.90
20479;DHT22;10398;52.490;13.434;2023-07-29T03:23:23;18.30;99.90
20479;DHT22;10398;52.490;13.434;2023-07-29T03:25:49;18.20;99.90
20479;DHT22;10398;52.490;13.434;2023-07-29T03:28:16;18.20;99.90
20479;DHT22;10398;52.490;13.434;2023-07-29T03:30:42;18.20;99.90
20479;DHT22;10398;52.490;13.434;2023-07-29T03:33:08;18.10;99.90
20479;DHT22;10398;52.490;13.434;2023-07-29T03:35:33;18.00;99.90
20479;DHT22;10398;52.490;13.434;2023-07-29T03:37:59;18.00;99.90
20479;DHT22;10398;52.490;13.434;2023-07-29T03:40:24;17.90;99.90
20479;DHT22;10398;52.490;13.434;2023-07-29T03:42:50;18.00;99.90
20479;DHT22;10398;52.490;13.434;2023-07-29T03:45:16;17.90;99.90
20479;DHT22;10398;52.490;13.434;2023-07-29T03:47:41;17.90;99.90
20479;DHT22;10398;52.490;13.434;2023-07-29T03:50:07;17.90;99.90
20479;DHT22;10398;52.490;13.434;2023-07-29T03:52:33;17.90;99.90
20479;DHT22;10398;52.490;13.434;2023-07-29T03:54:59;18.00;99.90
20479;DHT22;10398;52.490;13.434;2023-07-29T03:57:24;17.90;99.90
20479;DHT22;10398;52.490;13.434;2023-07-29T03:59:50;17.90;99.90
20479;DHT22;10398;52.490;13.434;2023-07-29T04:02:15;17.90;99.90
20479;DHT22;10398;52.490;13.434;2023-07-29T04:04:41;17.90;99.90
20479;DHT22;10398;52.490;13.434;2023-07-29T04:07:09;17.90;99.90
20479;DHT22;10398;52.490;13.434;2023-07-29T04:09:35;18.00;99.90
20479;DHT22;10398;52.490;13.434;2023-07-29T04:12:01;18.00;99.90
20479;DHT22;10398;52.490;13.434;2023-07-29T04:14:27;17.90;99.90
20479;DHT22;10398;52.490;13.434;2023-07-29T04:16:52;18.00;99.90
20479;DHT22;10398;52.490;13.434;2023-07-29T04:19:18;18.00;99.90
20479;DHT22;10398;52.490;13.434;2023-07-29T04:21:43;18.00;99.90
20479;DHT22;10398;52.490;13.434;2023-07-29T04:24:09;18.00;99.90
20479;DHT22;10398;52.490;13.434;2023-07-29T04:26:34;18.00;99.90
20479;DHT22;10398;52.490;13.434;2023-07-29T04:29:00;18.00;99.90
20479;DHT22;10398;52.490;13.434;2023-07-29T04:31:26;18.10;99.90
20479;DHT22;10398;52.490;13.434;2023-07-29T04:33:51;18.00;99.90
20479;DHT22;10398;52.490;13.434;2023-07-29T04:36:17;18.00;99.90
20479;DHT22;10398;52.490;13.434;2023-07-29T04:38:42;18.10;99.90
20479;DHT22;10398;52.490;13.434;2023-07-29T04:41:08;18.10;99.90
20479;DHT22;10398;52.490;13.434;2023-07-29T04:43:34;18.10;99.90
20479;DHT22;10398;52.490;13.434;2023-07-29T04:46:00;18.20;99.90
20479;DHT22;10398;52.490;13.434;2023-07-29T04:48:25;18.30;99.90
20479;DHT22;10398;52.490;13.434;2023-07-29T04:50:51;18.30;99.90
20479;DHT22;10398;52.490;13.434;2023-07-29T04:53:16;18.30;99.90
20479;DHT22;10398;52.490;13.434;2023-07-29T04:55:42;18.30;99.90
20479;DHT22;10398;52.490;13.434;2023-07-29T04:58:09;18.40;99.90
20479;DHT22;10398;52.490;13.434;2023-07-29T05:00:34;18.40;99.90
20479;DHT22;10398;52.490;13.434;2023-07-29T05:03:00;18.40;99.90
20479;DHT22;10398;52.490;13.434;2023-07-29T05:05:27;18.40;99.90
20479;DHT22;10398;52.490;13.434;2023-07-29T05:07:52;18.50;99.90
20479;DHT22;10398;52.490;13.434;2023-07-29T05:10:18;18.60;99.90
20479;DHT22;10398;52.490;13.434;2023-07-29T05:12:44;18.60;99.90
20479;DHT22;10398;52.490;13.434;2023-07-29T05:15:10;18.60;99.90
20479;DHT22;10398;52.490;13.434;2023-07-29T05:17:36;18.70;99.90
20479;DHT22;10398;52.490;13.434;2023-07-29T05:20:01;18.70;99.90
20479;DHT22;10398;52.490;13.434;2023-07-29T05:22:27;18.70;99.90
20479;DHT22;10398;52.490;13.434;2023-07-29T05:24:53;18.70;99.90
20479;DHT22;10398;52.490;13.434;2023-07-29T05:27:19;18.80;99.90
20479;DHT22;10398;52.490;13.434;2023-07-29T05:29:44;18.80;99.90
20479;DHT22;10398;52.490;13.434;2023-07-29T05:32:10;18.90;99.90
20479;DHT22;10398;52.490;13.434;2023-07-29T05:34:36;18.90;99.90
20479;DHT22;10398;52.490;13.434;2023-07-29T05:37:01;18.90;99.90
20479;DHT22;10398;52.490;13.434;2023-07-29T05:39:27;19.00;99.90
20479;DHT22;10398;52.490;13.434;2023-07-29T05:41:53;19.10;99.90
20479;DHT22;10398;52.490;13.434;2023-07-29T05:44:18;19.10;99.90
20479;DHT22;10398;52.490;13.434;2023-07-29T05:46:44;19.10;99.90
20479;DHT22;10398;52.490;13.434;2023-07-29T05:49:09;19.10;99.90
20479;DHT22;10398;52.490;13.434;2023-07-29T05:51:35;19.10;99.90
20479;DHT22;10398;52.490;13.434;2023-07-29T05:54:01;19.20;99.90
20479;DHT22;10398;52.490;13.434;2023-07-29T05:56:26;19.30;99.90
20479;DHT22;10398;52.490;13.434;2023-07-29T05:58:52;19.30;99.90
20479;DHT22;10398;52.490;13.434;2023-07-29T06:01:18;19.30;99.90
20479;DHT22;10398;52.490;13.434;2023-07-29T06:03:46;19.30;99.90
20479;DHT22;10398;52.490;13.434;2023-07-29T06:06:12;19.30;99.90
20479;DHT22;10398;52.490;13.434;2023-07-29T06:08:37;19.40;99.90
20479;DHT22;10398;52.490;13.434;2023-07-29T06:11:03;19.40;99.90
20479;DHT22;10398;52.490;13.434;2023-07-29T06:13:32;19.40;99.90
20479;DHT22;10398;52.490;13.434;2023-07-29T06:15:57;19.50;99.90
20479;DHT22;10398;52.490;13.434;2023-07-29T06:18:24;19.50;99.90
20479;DHT22;10398;52.490;13.434;2023-07-29T06:20:51;19.50;99.90
20479;DHT22;10398;52.490;13.434;2023-07-29T06:23:16;19.60;99.90
20479;DHT22;10398;52.490;13.434;2023-07-29T06:25:42;19.60;99.90
20479;DHT22;10398;52.490;13.434;2023-07-29T06:28:09;19.60;99.90
20479;DHT22;10398;52.490;13.434;2023-07-29T06:30:34;19.70;99.90
20479;DHT22;10398;52.490;13.434;2023-07-29T06:33:00;19.70;99.90
20479;DHT22;10398;52.490;13.434;2023-07-29T06:35:26;19.80;99.90
20479;DHT22;10398;52.490;13.434;2023-07-29T06:37:52;19.80;99.90
20479;DHT22;10398;52.490;13.434;2023-07-29T06:40:17;19.90;99.90
20479;DHT22;10398;52.490;13.434;2023-07-29T06:42:43;19.90;99.90
20479;DHT22;10398;52.490;13.434;2023-07-29T06:45:09;20.00;99.90
20479;DHT22;10398;52.490;13.434;2023-07-29T06:47:35;20.00;99.90
20479;DHT22;10398;52.490;13.434;2023-07-29T06:50:01;20.10;99.90
20479;DHT22;10398;52.490;13.434;2023-07-29T06:52:26;20.10;99.90
20479;DHT22;10398;52.490;13.434;2023-07-29T06:54:52;20.10;99.90
20479;DHT22;10398;52.490;13.434;2023-07-29T06:57:18;20.20;99.90
20479;DHT22;10398;52.490;13.434;2023-07-29T06:59:43;20.30;99.90
20479;DHT22;10398;52.490;13.434;2023-07-29T07:02:09;20.40;99.90
20479;DHT22;10398;52.490;13.434;2023-07-29T07:04:34;20.40;99.90
20479;DHT22;10398;52.490;13.434;2023-07-29T07:07:00;20.50;99.90
20479;DHT22;10398;52.490;13.434;2023-07-29T07:09:26;20.50;99.90
20479;DHT22;10398;52.490;13.434;2023-07-29T07:11:51;20.60;99.90
20479;DHT22;10398;52.490;13.434;2023-07-29T07:14:17;20.60;99.90
20479;DHT22;10398;52.490;13.434;2023-07-29T07:16:44;20.70;99.90
20479;DHT22;10398;52.490;13.434;2023-07-29T07:19:10;20.70;99.90
20479;DHT22;10398;52.490;13.434;2023-07-29T07:21:35;20.70;99.90
20479;DHT22;10398;52.490;13.434;2023-07-29T07:24:01;20.70;99.90
20479;DHT22;10398;52.490;13.434;2023-07-29T07:26:28;20.80;99.90
20479;DHT22;10398;52.490;13.434;2023-07-29T07:28:53;20.80;99.90
20479;DHT22;10398;52.490;13.434;2023-07-29T07:31:19;20.90;99.90
20479;DHT22;10398;52.490;13.434;2023-07-29T07:33:45;20.80;99.90
20479;DHT22;10398;52.490;13.434;2023-07-29T07:36:11;20.90;99.90
20479;DHT22;10398;52.490;13.434;2023-07-29T07:38:36;21.00;99.90
20479;DHT22;10398;52.490;13.434;2023-07-29T07:41:02;21.00;99.90
20479;DHT22;10398;52.490;13.434;2023-07-29T07:43:28;21.00;99.90
20479;DHT22;10398;52.490;13.434;2023-07-29T07:46:01;21.00;99.90
20479;DHT22;10398;52.490;13.434;2023-07-29T07:48:30;21.10;99.90
20479;DHT22;10398;52.490;13.434;2023-07-29T07:50:55;21.20;99.90
20479;DHT22;10398;52.490;13.434;2023-07-29T07:53:21;21.20;99.90
20479;DHT22;10398;52.490;13.434;2023-07-29T07:55:47;21.20;99.90
20479;DHT22;10398;52.490;13.434;2023-07-29T07:58:12;21.30;99.90
20479;DHT22;10398;52.490;13.434;2023-07-29T08:00:38;21.40;99.90
20479;DHT22;10398;52.490;13.434;2023-07-29T08:03:04;21.40;99.90
20479;DHT22;10398;52.490;13.434;2023-07-29T08:05:30;21.40;99.90
20479;DHT22;10398;52.490;13.434;2023-07-29T08:07:56;21.50;99.90
20479;DHT22;10398;52.490;13.434;2023-07-29T08:10:22;21.50;99.90
20479;DHT22;10398;52.490;13.434;2023-07-29T08:12:48;21.50;99.90
20479;DHT22;10398;52.490;13.434;2023-07-29T08:15:14;21.50;99.90
20479;DHT22;10398;52.490;13.434;2023-07-29T08:17:39;21.60;99.90
20479;DHT22;10398;52.490;13.434;2023-07-29T08:20:05;21.60;99.90
20479;DHT22;10398;52.490;13.434;2023-07-29T08:22:32;21.60;99.90
20479;DHT22;10398;52.490;13.434;2023-07-29T08:24:57;21.60;99.90
20479;DHT22;10398;52.490;13.434;2023-07-29T08:27:23;21.70;99.90
20479;DHT22;10398;52.490;13.434;2023-07-29T08:29:48;21.80;99.90
20479;DHT22;10398;52.490;13.434;2023-07-29T08:32:14;21.80;99.90
20479;DHT22;10398;52.490;13.434;2023-07-29T08:34:40;21.80;99.90
20479;DHT22;10398;52.490;13.434;2023-07-29T08:37:05;21.90;99.90
20479;DHT22;10398;52.490;13.434;2023-07-29T08:39:31;22.00;99.90
20479;DHT22;10398;52.490;13.434;2023-07-29T08:42:08;22.00;99.90
20479;DHT22;10398;52.490;13.434;2023-07-29T08:44:49;22.10;99.90
20479;DHT22;10398;52.490;13.434;2023-07-29T08:47:15;22.20;99.90
20479;DHT22;10398;52.490;13.434;2023-07-29T08:49:41;22.20;99.90
20479;DHT22;10398;52.490;13.434;2023-07-29T08:52:07;22.30;99.90
20479;DHT22;10398;52.490;13.434;2023-07-29T08:54:35;22.20;99.90
20479;DHT22;10398;52.490;13.434;2023-07-29T08:57:00;22.30;99.90
20479;DHT22;10398;52.490;13.434;2023-07-29T08:59:28;22.30;99.90
20479;DHT22;10398;52.490;13.434;2023-07-29T09:01:54;22.30;99.90
20479;DHT22;10398;52.490;13.434;2023-07-29T09:04:22;22.40;99.90
20479;DHT22;10398;52.490;13.434;2023-07-29T09:06:50;22.40;99.90
20479;DHT22;10398;52.490;13.434;2023-07-29T09:09:17;22.40;99.90
20479;DHT22;10398;52.490;13.434;2023-07-29T09:11:43;22.50;99.90
20479;DHT22;10398;52.490;13.434;2023-07-29T09:14:10;22.50;99.90
20479;DHT22;10398;52.490;13.434;2023-07-29T09:16:35;22.50;99.90
20479;DHT22;10398;52.490;13.434;2023-07-29T09:19:02;22.50;99.90
20479;DHT22;10398;52.490;13.434;2023-07-29T09:21:32;22.60;99.90
20479;DHT22;10398;52.490;13.434;2023-07-29T09:24:02;22.60;99.90
20479;DHT22;10398;52.490;13.434;2023-07-29T09:26:29;22.60;99.90
20479;DHT22;10398;52.490;13.434;2023-07-29T09:28:57;22.60;99.90
20479;DHT22;10398;52.490;13.434;2023-07-29T09:31:25;22.60;99.90
20479;DHT22;10398;52.490;13.434;2023-07-29T09:33:56;22.60;99.90
20479;DHT22;10398;52.490;13.434;2023-07-29T09:36:23;22.60;99.90
20479;DHT22;10398;52.490;13.434;2023-07-29T09:38:55;22.70;99.90
20479;DHT22;10398;52.490;13.434;2023-07-29T09:41:26;22.70;99.90
20479;DHT22;10398;52.490;13.434;2023-07-29T09:43:56;22.80;99.90
20479;DHT22;10398;52.490;13.434;2023-07-29T09:46:24;22.80;99.90
20479;DHT22;10398;52.490;13.434;2023-07-29T09:48:53;22.80;99.90
20479;DHT22;10398;52.490;13.434;2023-07-29T09:51:19;22.90;99.90
20479;DHT22;10398;52.490;13.434;2023-07-29T09:53:47;22.90;99.90
20479;DHT22;10398;52.490;13.434;2023-07-29T09:56:13;22.90;99.90
20479;DHT22;10398;52.490;13.434;2023-07-29T09:58:39;22.90;99.90
20479;DHT22;10398;52.490;13.434;2023-07-29T10:01:06;22.90;99.90
20479;DHT22;10398;52.490;13.434;2023-07-29T10:03:33;22.90;99.90
20479;DHT22;10398;52.490;13.434;2023-07-29T10:06:03;22.90;99.90
20479;DHT22;10398;52.490;13.434;2023-07-29T10:08:32;23.00;99.90
20479;DHT22;10398;52.490;13.434;2023-07-29T10:11:01;23.10;99.90
20479;DHT22;10398;52.490;13.434;2023-07-29T10:13:28;23.20;99.90
20479;DHT22;10398;52.490;13.434;2023-07-29T10:15:54;23.20;99.90
20479;DHT22;10398;52.490;13.434;2023-07-29T10:18:22;23.30;99.90
20479;DHT22;10398;52.490;13.434;2023-07-29T10:20:50;23.30;99.90
20479;DHT22;10398;52.490;13.434;2023-07-29T10:23:18;23.40;99.90
20479;DHT22;10398;52.490;13.434;2023-07-29T10:25:47;23.40;99.90
20479;DHT22;10398;52.490;13.434;2023-07-29T10:28:15;23.40;99.90
20479;DHT22;10398;52.490;13.434;2023-07-29T10:30:44;23.40;99.90
20479;DHT22;10398;52.490;13.434;2023-07-29T10:33:10;23.40;99.90
20479;DHT22;10398;52.490;13.434;2023-07-29T10:35:37;23.40;99.90
20479;DHT22;10398;52.490;13.434;2023-07-29T10:38:05;23.40;99.90
20479;DHT22;10398;52.490;13.434;2023-07-29T10:40:47;23.30;99.90
20479;DHT22;10398;52.490;13.434;2023-07-29T10:43:13;23.30;99.90
20479;DHT22;10398;52.490;13.434;2023-07-29T10:45:43;23.30;99.90
20479;DHT22;10398;52.490;13.434;2023-07-29T10:48:13;23.20;99.90
20479;DHT22;10398;52.490;13.434;2023-07-29T10:51:33;23.20;99.90
20479;DHT22;10398;52.490;13.434;2023-07-29T10:54:13;23.30;99.90
20479;DHT22;10398;52.490;13.434;2023-07-29T10:56:47;23.30;99.90
20479;DHT22;10398;52.490;13.434;2023-07-29T11:01:42;23.50;99.90
20479;DHT22;10398;52.490;13.434;2023-07-29T11:15:22;23.40;99.90
20479;DHT22;10398;52.490;13.434;2023-07-29T11:17:58;23.40;99.90
20479;DHT22;10398;52.490;13.434;2023-07-29T11:20:29;23.30;99.90
20479;DHT22;10398;52.490;13.434;2023-07-29T11:22:56;23.20;99.90
20479;DHT22;10398;52.490;13.434;2023-07-29T11:25:23;23.00;99.90
20479;DHT22;10398;52.490;13.434;2023-07-29T11:27:52;22.60;99.90
20479;DHT22;10398;52.490;13.434;2023-07-29T11:30:18;22.10;99.90
20479;DHT22;10398;52.490;13.434;2023-07-29T11:32:45;21.80;99.90
20479;DHT22;10398;52.490;13.434;2023-07-29T11:35:16;21.60;99.90
20479;DHT22;10398;52.490;13.434;2023-07-29T11:37:46;21.30;99.90
20479;DHT22;10398;52.490;13.434;2023-07-29T11:42:41;21.20;99.90
20479;DHT22;10398;52.490;13.434;2023-07-29T11:45:07;21.10;99.90
20479;DHT22;10398;52.490;13.434;2023-07-29T11:47:33;21.10;99.90
20479;DHT22;10398;52.490;13.434;2023-07-29T11:50:06;21.10;99.90
20479;DHT22;10398;52.490;13.434;2023-07-29T11:52:35;21.10;99.90
20479;DHT22;10398;52.490;13.434;2023-07-29T11:55:02;21.00;99.90
20479;DHT22;10398;52.490;13.434;2023-07-29T11:57:29;21.00;99.90
20479;DHT22;10398;52.490;13.434;2023-07-29T11:59:55;21.00;99.90
20479;DHT22;10398;52.490;13.434;2023-07-29T12:02:22;21.00;99.90
20479;DHT22;10398;52.490;13.434;2023-07-29T12:04:49;20.90;99.90
20479;DHT22;10398;52.490;13.434;2023-07-29T12:07:17;21.00;99.90
20479;DHT22;10398;52.490;13.434;2023-07-29T12:09:42;21.00;99.90
20479;DHT22;10398;52.490;13.434;2023-07-29T12:12:08;21.00;99.90
20479;DHT22;10398;52.490;13.434;2023-07-29T12:14:34;21.00;99.90
20479;DHT22;10398;52.490;13.434;2023-07-29T12:17:01;21.00;99.90
20479;DHT22;10398;52.490;13.434;2023-07-29T12:19:38;21.00;99.90
20479;DHT22;10398;52.490;13.434;2023-07-29T12:22:05;21.10;99.90
20479;DHT22;10398;52.490;13.434;2023-07-29T12:24:32;21.10;99.90
20479;DHT22;10398;52.490;13.434;2023-07-29T12:26:58;21.10;99.90
20479;DHT22;10398;52.490;13.434;2023-07-29T12:29:24;21.10;99.90
20479;DHT22;10398;52.490;13.434;2023-07-29T12:32:00;21.10;99.90
20479;DHT22;10398;52.490;13.434;2023-07-29T12:34:27;21.10;99.90
20479;DHT22;10398;52.490;13.434;2023-07-29T12:36:55;21.10;99.90
20479;DHT22;10398;52.490;13.434;2023-07-29T12:39:23;21.10;99.90
20479;DHT22;10398;52.490;13.434;2023-07-29T12:41:50;21.10;99.90
20479;DHT22;10398;52.490;13.434;2023-07-29T12:44:17;21.20;99.90
20479;DHT22;10398;52.490;13.434;2023-07-29T12:46:43;21.20;99.90
20479;DHT22;10398;52.490;13.434;2023-07-29T12:49:08;21.20;99.90
20479;DHT22;10398;52.490;13.434;2023-07-29T12:51:34;21.30;99.90
20479;DHT22;10398;52.490;13.434;2023-07-29T12:54:01;21.40;99.90
20479;DHT22;10398;52.490;13.434;2023-07-29T12:56:27;21.60;99.90
20479;DHT22;10398;52.490;13.434;2023-07-29T12:58:52;21.80;99.90
20479;DHT22;10398;52.490;13.434;2023-07-29T13:01:18;22.00;99.90
20479;DHT22;10398;52.490;13.434;2023-07-29T13:03:44;22.20;99.90
20479;DHT22;10398;52.490;13.434;2023-07-29T13:06:10;22.30;99.90
20479;DHT22;10398;52.490;13.434;2023-07-29T13:08:36;22.40;99.90
20479;DHT22;10398;52.490;13.434;2023-07-29T13:11:03;22.50;99.90
20479;DHT22;10398;52.490;13.434;2023-07-29T13:13:29;22.50;99.90
20479;DHT22;10398;52.490;13.434;2023-07-29T13:15:54;22.50;99.90
20479;DHT22;10398;52.490;13.434;2023-07-29T13:18:21;22.50;99.90
20479;DHT22;10398;52.490;13.434;2023-07-29T13:20:47;22.60;99.90
20479;DHT22;10398;52.490;13.434;2023-07-29T13:23:12;22.60;99.90
20479;DHT22;10398;52.490;13.434;2023-07-29T13:25:38;22.50;99.90
20479;DHT22;10398;52.490;13.434;2023-07-29T13:28:04;22.50;99.90
20479;DHT22;10398;52.490;13.434;2023-07-29T13:30:30;22.40;99.90
20479;DHT22;10398;52.490;13.434;2023-07-29T13:32:56;22.30;99.90
20479;DHT22;10398;52.490;13.434;2023-07-29T13:35:22;22.30;99.90
20479;DHT22;10398;52.490;13.434;2023-07-29T13:37:47;22.40;99.90
20479;DHT22;10398;52.490;13.434;2023-07-29T13:40:13;22.40;99.90
20479;DHT22;10398;52.490;13.434;2023-07-29T13:42:39;22.50;99.90
20479;DHT22;10398;52.490;13.434;2023-07-29T13:45:05;22.70;99.90
20479;DHT22;10398;52.490;13.434;2023-07-29T13:47:30;22.90;99.90
20479;DHT22;10398;52.490;13.434;2023-07-29T13:49:56;23.00;99.90
20479;DHT22;10398;52.490;13.434;2023-07-29T13:52:22;23.10;99.90
20479;DHT22;10398;52.490;13.434;2023-07-29T13:54:47;23.20;99.90
20479;DHT22;10398;52.490;13.434;2023-07-29T13:57:13;23.20;99.90
20479;DHT22;10398;52.490;13.434;2023-07-29T13:59:38;23.40;99.90
20479;DHT22;10398;52.490;13.434;2023-07-29T14:02:07;23.50;99.90
20479;DHT22;10398;52.490;13.434;2023-07-29T14:04:33;23.60;99.90
20479;DHT22;10398;52.490;13.434;2023-07-29T14:06:59;23.50;99.90
20479;DHT22;10398;52.490;13.434;2023-07-29T14:09:26;23.50;99.90
20479;DHT22;10398;52.490;13.434;2023-07-29T14:11:52;23.60;99.90
20479;DHT22;10398;52.490;13.434;2023-07-29T14:14:17;23.70;99.90
20479;DHT22;10398;52.490;13.434;2023-07-29T14:16:43;23.70;99.90
20479;DHT22;10398;52.490;13.434;2023-07-29T14:19:09;23.70;99.90
20479;DHT22;10398;52.490;13.434;2023-07-29T14:21:34;23.70;99.90
20479;DHT22;10398;52.490;13.434;2023-07-29T14:24:00;23.70;99.90
20479;DHT22;10398;52.490;13.434;2023-07-29T14:26:25;23.80;99.90
20479;DHT22;10398;52.490;13.434;2023-07-29T14:28:51;23.80;99.90
20479;DHT22;10398;52.490;13.434;2023-07-29T14:31:17;23.90;99.90
20479;DHT22;10398;52.490;13.434;2023-07-29T14:33:43;24.10;99.90
20479;DHT22;10398;52.490;13.434;2023-07-29T14:36:09;24.10;99.90
20479;DHT22;10398;52.490;13.434;2023-07-29T14:38:36;24.20;99.90
20479;DHT22;10398;52.490;13.434;2023-07-29T14:41:05;24.30;99.90
20479;DHT22;10398;52.490;13.434;2023-07-29T14:43:31;24.30;99.90
20479;DHT22;10398;52.490;13.434;2023-07-29T14:45:56;24.30;99.90
20479;DHT22;10398;52.490;13.434;2023-07-29T14:48:23;24.20;99.90
20479;DHT22;10398;52.490;13.434;2023-07-29T14:50:49;24.30;99.90
20479;DHT22;10398;52.490;13.434;2023-07-29T14:53:14;24.30;99.90
20479;DHT22;10398;52.490;13.434;2023-07-29T14:55:40;24.30;99.90
20479;DHT22;10398;52.490;13.434;2023-07-29T14:58:06;24.30;99.90
20479;DHT22;10398;52.490;13.434;2023-07-29T15:00:31;24.30;99.90
20479;DHT22;10398;52.490;13.434;2023-07-29T15:02:58;24.20;99.90
20479;DHT22;10398;52.490;13.434;2023-07-29T15:05:24;24.10;99.90
20479;DHT22;10398;52.490;13.434;2023-07-29T15:07:49;23.90;99.90
20479;DHT22;10398;52.490;13.434;2023-07-29T15:10:16;23.80;99.90
20479;DHT22;10398;52.490;13.434;2023-07-29T15:12:42;23.60;99.90
20479;DHT22;10398;52.490;13.434;2023-07-29T15:15:09;23.50;99.90
20479;DHT22;10398;52.490;13.434;2023-07-29T15:17:34;23.50;99.90
20479;DHT22;10398;52.490;13.434;2023-07-29T15:20:01;23.40;99.90
20479;DHT22;10398;52.490;13.434;2023-07-29T15:22:26;23.30;99.90
20479;DHT22;10398;52.490;13.434;2023-07-29T15:24:52;23.30;99.90
20479;DHT22;10398;52.490;13.434;2023-07-29T15:27:18;23.20;99.90
20479;DHT22;10398;52.490;13.434;2023-07-29T15:29:43;23.20;99.90
20479;DHT22;10398;52.490;13.434;2023-07-29T15:32:09;23.20;99.90